sensor_id;sensor_type;location;lat;lon;timestamp;pressure;altitude;pressure_sealevel;temperature;humidity
63493;BME280;49638;47.526;10.028;2023-03-18T00:00:43;91347.66;;;7.20;66.43
63493;BME280;49638;47.526;10.028;2023-03-18T00:03:44;91335.19;;;7.16;66.43
63493;BME280;49638;47.526;10.028;2023-03-18T00:06:46;91325.94;;;7.13;66.25
63493;BME280;49638;47.526;10.028;2023-03-18T00:09:46;91343.28;;;7.26;66.08
63493;BME280;49638;47.526;10.028;2023-03-18T00:12:47;91343.06;;;7.27;66.12
63493;BME280;49638;47.526;10.028;2023-03-18T00:15:50;91347.53;;;7.27;66.28
63493;BME280;49638;47.526;10.028;2023-03-18T00:18:50;91334.41;;;7.15;66.77
63493;BME280;49638;47.526;10.028;2023-03-18T00:21:52;91352.56;;;7.17;66.49
63493;BME280;49638;47.526;10.028;2023-03-18T00:24:52;91341.81;;;7.06;66.88
63493;BME280;49638;47.526;10.028;2023-03-18T00:27:52;91347.66;;;7.08;66.99
63493;BME280;49638;47.526;10.028;2023-03-18T00:30:54;91353.03;;;7.14;66.56
63493;BME280;49638;47.526;10.028;2023-03-18T00:33:56;91361.72;;;7.14;66.90
63493;BME280;49638;47.526;10.028;2023-03-18T00:36:56;91350.06;;;6.98;66.96
63493;BME280;49638;47.526;10.028;2023-03-18T00:39:58;91356.00;;;7.05;66.62
63493;BME280;49638;47.526;10.028;2023-03-18T00:43:03;91363.66;;;6.95;67.40
63493;BME280;49638;47.526;10.028;2023-03-18T00:46:07;91362.41;;;6.86;68.17
63493;BME280;49638;47.526;10.028;2023-03-18T00:49:08;91359.91;;;6.91;67.19
63493;BME280;49638;47.526;10.028;2023-03-18T00:52:08;91365.75;;;6.93;67.39
63493;BME280;49638;47.526;10.028;2023-03-18T00:55:09;91349.84;;;6.88;67.26
63493;BME280;49638;47.526;10.028;2023-03-18T00:58:10;91357.53;;;6.90;67.75
63493;BME280;49638;47.526;10.028;2023-03-18T01:01:12;91361.28;;;6.94;67.27
63493;BME280;49638;47.526;10.028;2023-03-18T01:04:12;91358.31;;;6.90;67.64
63493;BME280;49638;47.526;10.028;2023-03-18T01:07:13;91349.75;;;6.83;67.42
63493;BME280;49638;47.526;10.028;2023-03-18T01:10:14;91361.41;;;6.87;67.89
63493;BME280;49638;47.526;10.028;2023-03-18T01:13:14;91359.91;;;6.79;68.01
63493;BME280;49638;47.526;10.028;2023-03-18T01:16:15;91352.03;;;6.68;68.52
63493;BME280;49638;47.526;10.028;2023-03-18T01:19:16;91352.72;;;6.63;68.63
63493;BME280;49638;47.526;10.028;2023-03-18T01:22:17;91348.03;;;6.53;68.79
63493;BME280;49638;47.526;10.028;2023-03-18T01:25:19;91354.75;;;6.61;68.48
63493;BME280;49638;47.526;10.028;2023-03-18T01:28:20;91357.28;;;6.68;68.33
63493;BME280;49638;47.526;10.028;2023-03-18T01:31:21;91360.03;;;6.73;68.05
63493;BME280;49638;47.526;10.028;2023-03-18T01:34:24;91351.91;;;6.74;67.86
63493;BME280;49638;47.526;10.028;2023-03-18T01:37:25;91360.81;;;6.85;67.63
63493;BME280;49638;47.526;10.028;2023-03-18T01:40:26;91348.81;;;6.89;67.60
63493;BME280;49638;47.526;10.028;2023-03-18T01:43:33;91343.56;;;6.89;67.07
63493;BME280;49638;47.526;10.028;2023-03-18T01:46:37;91349.16;;;6.93;67.62
63493;BME280;49638;47.526;10.028;2023-03-18T01:49:42;91349.75;;;6.83;68.24
63493;BME280;49638;47.526;10.028;2023-03-18T01:52:45;91343.44;;;6.72;68.12
63493;BME280;49638;47.526;10.028;2023-03-18T01:55:47;91351.13;;;6.74;68.00
63493;BME280;49638;47.526;10.028;2023-03-18T01:58:52;91350.66;;;6.77;67.89
63493;BME280;49638;47.526;10.028;2023-03-18T02:02:01;91344.50;;;6.71;67.74
63493;BME280;49638;47.526;10.028;2023-03-18T02:05:03;91336.97;;;6.63;67.84
63493;BME280;49638;47.526;10.028;2023-03-18T02:08:05;91347.69;;;6.61;68.38
63493;BME280;49638;47.526;10.028;2023-03-18T02:11:07;91343.34;;;6.55;68.21
63493;BME280;49638;47.526;10.028;2023-03-18T02:14:10;91345.63;;;6.63;68.20
63493;BME280;49638;47.526;10.028;2023-03-18T02:17:14;91355.91;;;6.65;68.62
63493;BME280;49638;47.526;10.028;2023-03-18T02:23:57;91353.84;;;6.67;69.44
63493;BME280;49638;47.526;10.028;2023-03-18T02:27:03;91348.13;;;6.58;68.53
63493;BME280;49638;47.526;10.028;2023-03-18T02:30:24;91347.78;;;6.55;69.92
63493;BME280;49638;47.526;10.028;2023-03-18T02:33:30;91352.25;;;6.43;69.35
63493;BME280;49638;47.526;10.028;2023-03-18T02:36:34;91339.69;;;6.33;69.19
63493;BME280;49638;47.526;10.028;2023-03-18T02:39:35;91351.06;;;6.38;68.91
63493;BME280;49638;47.526;10.028;2023-03-18T02:42:35;91353.00;;;6.31;69.12
63493;BME280;49638;47.526;10.028;2023-03-18T02:45:53;91354.03;;;6.30;70.48
63493;BME280;49638;47.526;10.028;2023-03-18T02:48:55;91354.03;;;6.30;69.04
63493;BME280;49638;47.526;10.028;2023-03-18T02:51:56;91354.19;;;6.35;68.79
63493;BME280;49638;47.526;10.028;2023-03-18T02:54:56;91345.13;;;6.31;68.85
63493;BME280;49638;47.526;10.028;2023-03-18T02:57:58;91355.44;;;6.33;68.63
63493;BME280;49638;47.526;10.028;2023-03-18T03:00:58;91360.53;;;6.28;69.08
63493;BME280;49638;47.526;10.028;2023-03-18T03:03:59;91369.09;;;6.23;69.24
63493;BME280;49638;47.526;10.028;2023-03-18T03:06:59;91358.94;;;6.15;69.28
63493;BME280;49638;47.526;10.028;2023-03-18T03:10:02;91374.69;;;6.27;68.90
63493;BME280;49638;47.526;10.028;2023-03-18T03:13:03;91376.28;;;6.28;68.73
63493;BME280;49638;47.526;10.028;2023-03-18T03:16:04;91367.63;;;6.27;68.43
63493;BME280;49638;47.526;10.028;2023-03-18T03:19:05;91370.03;;;6.29;68.41
63493;BME280;49638;47.526;10.028;2023-03-18T03:22:05;91375.72;;;6.26;68.58
63493;BME280;49638;47.526;10.028;2023-03-18T03:25:07;91382.56;;;6.27;68.56
63493;BME280;49638;47.526;10.028;2023-03-18T03:28:07;91367.63;;;6.27;68.27
63493;BME280;49638;47.526;10.028;2023-03-18T03:31:08;91381.09;;;6.31;68.17
63493;BME280;49638;47.526;10.028;2023-03-18T03:34:09;91381.78;;;6.38;68.15
63493;BME280;49638;47.526;10.028;2023-03-18T03:37:10;91379.75;;;6.40;68.21
63493;BME280;49638;47.526;10.028;2023-03-18T03:40:13;91381.13;;;6.43;68.36
63493;BME280;49638;47.526;10.028;2023-03-18T03:43:17;91380.78;;;6.39;68.59
63493;BME280;49638;47.526;10.028;2023-03-18T03:46:17;91361.81;;;6.37;68.16
63493;BME280;49638;47.526;10.028;2023-03-18T03:49:18;91370.38;;;6.44;68.23
63493;BME280;49638;47.526;10.028;2023-03-18T03:52:18;91370.13;;;6.34;68.46
63493;BME280;49638;47.526;10.028;2023-03-18T03:55:19;91365.44;;;6.24;68.78
63493;BME280;49638;47.526;10.028;2023-03-18T03:58:20;91377.06;;;6.28;68.86
63493;BME280;49638;47.526;10.028;2023-03-18T04:01:21;91375.84;;;6.31;68.79
63493;BME280;49638;47.526;10.028;2023-03-18T04:04:21;91377.31;;;6.38;68.29
63493;BME280;49638;47.526;10.028;2023-03-18T04:07:23;91374.03;;;6.43;68.21
63493;BME280;49638;47.526;10.028;2023-03-18T04:10:23;91378.72;;;6.41;68.54
63493;BME280;49638;47.526;10.028;2023-03-18T04:13:25;91363.66;;;6.36;68.15
63493;BME280;49638;47.526;10.028;2023-03-18T04:16:25;91372.56;;;6.35;68.23
63493;BME280;49638;47.526;10.028;2023-03-18T04:19:26;91380.44;;;6.35;68.43
63493;BME280;49638;47.526;10.028;2023-03-18T04:22:28;91361.47;;;6.22;68.67
63493;BME280;49638;47.526;10.028;2023-03-18T04:25:29;91368.25;;;6.11;68.65
63493;BME280;49638;47.526;10.028;2023-03-18T04:28:29;91364.28;;;6.08;69.31
63493;BME280;49638;47.526;10.028;2023-03-18T04:31:30;91377.06;;;6.05;69.31
63493;BME280;49638;47.526;10.028;2023-03-18T04:34:31;91371.91;;;6.10;69.12
63493;BME280;49638;47.526;10.028;2023-03-18T04:37:31;91366.66;;;6.10;68.85
63493;BME280;49638;47.526;10.028;2023-03-18T04:40:35;91372.50;;;6.12;68.44
63493;BME280;49638;47.526;10.028;2023-03-18T04:43:35;91365.63;;;6.11;68.48
63493;BME280;49638;47.526;10.028;2023-03-18T04:46:36;91366.13;;;6.20;68.25
63493;BME280;49638;47.526;10.028;2023-03-18T04:49:36;91353.91;;;6.13;68.52
63493;BME280;49638;47.526;10.028;2023-03-18T04:52:38;91363.84;;;6.23;68.30
63493;BME280;49638;47.526;10.028;2023-03-18T04:55:39;91351.41;;;6.19;68.09
63493;BME280;49638;47.526;10.028;2023-03-18T04:58:39;91361.47;;;6.22;68.54
63493;BME280;49638;47.526;10.028;2023-03-18T05:01:40;91379.50;;;6.30;68.58
63493;BME280;49638;47.526;10.028;2023-03-18T05:04:40;91367.41;;;6.29;68.46
63493;BME280;49638;47.526;10.028;2023-03-18T05:07:40;91368.56;;;6.33;68.63
63493;BME280;49638;47.526;10.028;2023-03-18T05:10:43;91353.00;;;6.20;68.84
63493;BME280;49638;47.526;10.028;2023-03-18T05:13:44;91369.09;;;6.23;68.80
63493;BME280;49638;47.526;10.028;2023-03-18T05:16:44;91363.72;;;6.18;68.93
63493;BME280;49638;47.526;10.028;2023-03-18T05:19:46;91366.22;;;6.13;68.83
63493;BME280;49638;47.526;10.028;2023-03-18T05:22:47;91365.16;;;6.02;69.02
63493;BME280;49638;47.526;10.028;2023-03-18T05:25:48;91371.47;;;6.01;69.21
63493;BME280;49638;47.526;10.028;2023-03-18T05:28:48;91369.84;;;6.00;69.00
63493;BME280;49638;47.526;10.028;2023-03-18T05:31:48;91374.53;;;5.98;68.91
63493;BME280;49638;47.526;10.028;2023-03-18T05:34:49;91372.16;;;5.90;69.46
63493;BME280;49638;47.526;10.028;2023-03-18T05:37:49;91362.22;;;5.80;69.69
63493;BME280;49638;47.526;10.028;2023-03-18T05:40:50;91376.34;;;5.79;69.92
63493;BME280;49638;47.526;10.028;2023-03-18T05:43:50;91376.22;;;5.74;69.74
63493;BME280;49638;47.526;10.028;2023-03-18T05:46:50;91366.84;;;5.66;69.66
63493;BME280;49638;47.526;10.028;2023-03-18T05:49:51;91366.63;;;5.68;69.87
63493;BME280;49638;47.526;10.028;2023-03-18T05:52:51;91371.19;;;5.73;70.36
63493;BME280;49638;47.526;10.028;2023-03-18T05:55:52;91368.38;;;5.56;70.70
63493;BME280;49638;47.526;10.028;2023-03-18T05:58:52;91367.16;;;5.58;70.84
63493;BME280;49638;47.526;10.028;2023-03-18T06:01:53;91367.41;;;5.68;70.54
63493;BME280;49638;47.526;10.028;2023-03-18T06:04:53;91358.88;;;5.73;70.35
63493;BME280;49638;47.526;10.028;2023-03-18T06:07:54;91364.84;;;5.80;70.35
63493;BME280;49638;47.526;10.028;2023-03-18T06:10:54;91371.47;;;5.83;70.78
63493;BME280;49638;47.526;10.028;2023-03-18T06:13:54;91370.88;;;5.81;70.91
63493;BME280;49638;47.526;10.028;2023-03-18T06:16:55;91354.88;;;5.70;70.93
63493;BME280;49638;47.526;10.028;2023-03-18T06:19:56;91367.09;;;5.77;71.05
63493;BME280;49638;47.526;10.028;2023-03-18T06:22:56;91359.94;;;5.84;70.70
63493;BME280;49638;47.526;10.028;2023-03-18T06:25:56;91382.75;;;6.02;70.55
63493;BME280;49638;47.526;10.028;2023-03-18T06:28:56;91380.59;;;6.10;70.79
63493;BME280;49638;47.526;10.028;2023-03-18T06:31:58;91364.50;;;6.07;70.91
63493;BME280;49638;47.526;10.028;2023-03-18T06:34:58;91380.75;;;6.27;70.79
63493;BME280;49638;47.526;10.028;2023-03-18T06:37:59;91368.09;;;6.36;70.31
63493;BME280;49638;47.526;10.028;2023-03-18T06:41:00;91366.81;;;6.38;70.00
63493;BME280;49638;47.526;10.028;2023-03-18T06:44:01;91375.63;;;6.44;70.06
63493;BME280;49638;47.526;10.028;2023-03-18T06:47:01;91382.03;;;6.48;70.05
63493;BME280;49638;47.526;10.028;2023-03-18T06:50:01;91364.81;;;6.52;70.20
63493;BME280;49638;47.526;10.028;2023-03-18T06:53:02;91373.84;;;6.80;70.09
63493;BME280;49638;47.526;10.028;2023-03-18T06:56:03;91367.88;;;6.96;70.55
63493;BME280;49638;47.526;10.028;2023-03-18T06:59:05;91361.94;;;7.13;70.12
63493;BME280;49638;47.526;10.028;2023-03-18T07:02:09;91365.09;;;7.26;70.04
63493;BME280;49638;47.526;10.028;2023-03-18T07:05:09;91368.78;;;7.37;69.33
63493;BME280;49638;47.526;10.028;2023-03-18T07:08:09;91365.84;;;7.50;68.83
63493;BME280;49638;47.526;10.028;2023-03-18T07:11:10;91372.34;;;7.71;68.71
63493;BME280;49638;47.526;10.028;2023-03-18T07:14:10;91366.69;;;7.79;69.08
63493;BME280;49638;47.526;10.028;2023-03-18T07:17:10;91371.34;;;7.89;69.41
63493;BME280;49638;47.526;10.028;2023-03-18T07:20:11;91364.19;;;8.01;69.25
63493;BME280;49638;47.526;10.028;2023-03-18T07:23:12;91372.25;;;8.12;69.08
63493;BME280;49638;47.526;10.028;2023-03-18T07:26:12;91369.16;;;8.15;69.64
63493;BME280;49638;47.526;10.028;2023-03-18T07:29:13;91369.81;;;8.22;69.27
63493;BME280;49638;47.526;10.028;2023-03-18T07:32:14;91371.34;;;8.35;69.22
63493;BME280;49638;47.526;10.028;2023-03-18T07:35:14;91362.28;;;8.42;69.03
63493;BME280;49638;47.526;10.028;2023-03-18T07:38:15;91364.84;;;8.54;69.24
63493;BME280;49638;47.526;10.028;2023-03-18T07:41:17;91371.09;;;8.65;68.88
63493;BME280;49638;47.526;10.028;2023-03-18T07:44:17;91364.38;;;8.74;68.53
63493;BME280;49638;47.526;10.028;2023-03-18T07:47:17;91367.31;;;8.94;68.17
63493;BME280;49638;47.526;10.028;2023-03-18T07:50:19;91375.44;;;9.10;67.82
63493;BME280;49638;47.526;10.028;2023-03-18T07:53:20;91369.34;;;9.26;67.73
63493;BME280;49638;47.526;10.028;2023-03-18T07:56:21;91368.50;;;9.42;67.69
63493;BME280;49638;47.526;10.028;2023-03-18T07:59:21;91370.59;;;9.62;67.27
63493;BME280;49638;47.526;10.028;2023-03-18T08:02:21;91362.50;;;9.69;67.05
63493;BME280;49638;47.526;10.028;2023-03-18T08:05:22;91372.19;;;9.85;66.99
63493;BME280;49638;47.526;10.028;2023-03-18T08:08:23;91371.00;;;9.98;66.61
63493;BME280;49638;47.526;10.028;2023-03-18T08:11:23;91376.47;;;10.13;66.41
63493;BME280;49638;47.526;10.028;2023-03-18T08:14:24;91389.59;;;10.30;66.15
63493;BME280;49638;47.526;10.028;2023-03-18T08:17:24;91380.41;;;10.38;65.81
63493;BME280;49638;47.526;10.028;2023-03-18T08:20:25;91383.66;;;10.45;65.69
63493;BME280;49638;47.526;10.028;2023-03-18T08:23:26;91382.94;;;10.50;65.21
63493;BME280;49638;47.526;10.028;2023-03-18T08:26:26;91385.91;;;10.58;64.82
63493;BME280;49638;47.526;10.028;2023-03-18T08:29:27;91389.38;;;10.64;64.86
63493;BME280;49638;47.526;10.028;2023-03-18T08:32:27;91385.19;;;10.68;64.46
63493;BME280;49638;47.526;10.028;2023-03-18T08:35:27;91390.50;;;10.73;64.40
63493;BME280;49638;47.526;10.028;2023-03-18T08:38:28;91388.19;;;10.77;63.69
63493;BME280;49638;47.526;10.028;2023-03-18T08:41:28;91382.56;;;10.73;63.11
63493;BME280;49638;47.526;10.028;2023-03-18T08:44:28;91393.22;;;10.78;62.58
63493;BME280;49638;47.526;10.028;2023-03-18T08:47:30;91393.16;;;10.73;62.15
63493;BME280;49638;47.526;10.028;2023-03-18T08:50:30;91389.97;;;10.71;61.82
63493;BME280;49638;47.526;10.028;2023-03-18T08:53:31;91392.13;;;10.74;61.57
63493;BME280;49638;47.526;10.028;2023-03-18T08:56:31;91387.84;;;10.73;61.48
63493;BME280;49638;47.526;10.028;2023-03-18T08:59:31;91387.34;;;10.76;60.89
63493;BME280;49638;47.526;10.028;2023-03-18T09:02:31;91388.41;;;10.75;60.50
63493;BME280;49638;47.526;10.028;2023-03-18T09:05:32;91379.41;;;10.71;60.50
63493;BME280;49638;47.526;10.028;2023-03-18T09:08:33;91373.63;;;10.74;60.03
63493;BME280;49638;47.526;10.028;2023-03-18T09:11:33;91372.00;;;10.73;60.03
63493;BME280;49638;47.526;10.028;2023-03-18T09:14:34;91370.97;;;10.74;59.95
63493;BME280;49638;47.526;10.028;2023-03-18T09:17:36;91359.56;;;10.69;59.66
63493;BME280;49638;47.526;10.028;2023-03-18T09:20:40;91361.66;;;10.67;59.64
63493;BME280;49638;47.526;10.028;2023-03-18T09:23:40;91360.09;;;10.71;59.65
63493;BME280;49638;47.526;10.028;2023-03-18T09:26:40;91348.97;;;10.69;59.23
63493;BME280;49638;47.526;10.028;2023-03-18T09:29:41;91361.44;;;10.73;59.17
63493;BME280;49638;47.526;10.028;2023-03-18T09:32:42;91353.75;;;10.72;59.08
63493;BME280;49638;47.526;10.028;2023-03-18T09:35:42;91355.63;;;10.71;58.42
63493;BME280;49638;47.526;10.028;2023-03-18T09:38:43;91355.91;;;10.75;57.97
63493;BME280;49638;47.526;10.028;2023-03-18T09:48:43;91350.94;;;10.83;55.55
63493;BME280;49638;47.526;10.028;2023-03-18T09:52:06;91346.72;;;10.82;53.91
63493;BME280;49638;47.526;10.028;2023-03-18T09:58:50;91344.13;;;10.93;53.60
63493;BME280;49638;47.526;10.028;2023-03-18T10:01:53;91347.03;;;10.91;57.11
63493;BME280;49638;47.526;10.028;2023-03-18T10:04:58;91346.03;;;10.97;56.81
63493;BME280;49638;47.526;10.028;2023-03-18T10:08:06;91338.09;;;10.97;54.97
63493;BME280;49638;47.526;10.028;2023-03-18T10:11:31;91333.13;;;11.06;53.17
63493;BME280;49638;47.526;10.028;2023-03-18T10:14:38;91323.63;;;11.10;56.58
63493;BME280;49638;47.526;10.028;2023-03-18T10:17:49;91317.03;;;11.12;55.09
63493;BME280;49638;47.526;10.028;2023-03-18T10:24:28;91312.88;;;11.27;53.23
63493;BME280;49638;47.526;10.028;2023-03-18T10:31:00;91311.66;;;11.45;55.58
63493;BME280;49638;47.526;10.028;2023-03-18T10:37:48;91306.69;;;11.58;49.92
63493;BME280;49638;47.526;10.028;2023-03-18T10:40:50;91293.97;;;11.55;55.03
63493;BME280;49638;47.526;10.028;2023-03-18T10:43:52;91306.97;;;11.67;54.84
63493;BME280;49638;47.526;10.028;2023-03-18T10:50:17;91301.75;;;11.82;52.03
63493;BME280;49638;47.526;10.028;2023-03-18T10:53:29;91310.78;;;11.87;50.33
63493;BME280;49638;47.526;10.028;2023-03-18T10:56:34;91312.91;;;11.95;54.06
63493;BME280;49638;47.526;10.028;2023-03-18T10:59:35;91299.16;;;11.98;54.39
63493;BME280;49638;47.526;10.028;2023-03-18T11:02:37;91303.13;;;12.05;53.46
63493;BME280;49638;47.526;10.028;2023-03-18T11:05:40;91303.69;;;12.02;53.54
63493;BME280;49638;47.526;10.028;2023-03-18T11:08:46;91318.25;;;12.15;52.10
63493;BME280;49638;47.526;10.028;2023-03-18T11:11:48;91315.09;;;12.18;53.91
63493;BME280;49638;47.526;10.028;2023-03-18T11:14:49;91320.94;;;12.25;54.15
63493;BME280;49638;47.526;10.028;2023-03-18T11:17:50;91324.63;;;12.29;54.12
63493;BME280;49638;47.526;10.028;2023-03-18T11:20:58;91317.78;;;12.34;52.49
63493;BME280;49638;47.526;10.028;2023-03-18T11:24:03;91296.56;;;12.28;53.79
63493;BME280;49638;47.526;10.028;2023-03-18T11:30:27;91307.19;;;12.44;50.44
63493;BME280;49638;47.526;10.028;2023-03-18T11:33:30;91306.13;;;12.50;53.18
63493;BME280;49638;47.526;10.028;2023-03-18T11:36:36;91298.19;;;12.50;52.96
63493;BME280;49638;47.526;10.028;2023-03-18T11:39:39;91300.81;;;12.55;53.16
63493;BME280;49638;47.526;10.028;2023-03-18T11:42:41;91298.97;;;12.61;52.89
63493;BME280;49638;47.526;10.028;2023-03-18T11:45:49;91292.59;;;12.67;50.81
63493;BME280;49638;47.526;10.028;2023-03-18T11:48:51;91295.25;;;12.67;52.62
63493;BME280;49638;47.526;10.028;2023-03-18T11:51:53;91288.09;;;12.72;52.41
63493;BME280;49638;47.526;10.028;2023-03-18T11:58:36;91265.81;;;12.68;47.74
63493;BME280;49638;47.526;10.028;2023-03-18T12:11:23;91260.22;;;12.80;49.49
63493;BME280;49638;47.526;10.028;2023-03-18T12:14:40;91265.78;;;12.84;48.11
63493;BME280;49638;47.526;10.028;2023-03-18T12:17:51;91268.19;;;12.85;48.67
63493;BME280;49638;47.526;10.028;2023-03-18T12:27:36;91254.66;;;12.92;51.18
63493;BME280;49638;47.526;10.028;2023-03-18T12:33:53;91246.44;;;12.93;50.96
63493;BME280;49638;47.526;10.028;2023-03-18T12:40:20;91251.19;;;12.96;50.84
63493;BME280;49638;47.526;10.028;2023-03-18T12:43:51;91238.72;;;12.97;48.51
63493;BME280;49638;47.526;10.028;2023-03-18T12:47:04;91230.00;;;12.91;49.24
63493;BME280;49638;47.526;10.028;2023-03-18T12:50:17;91243.75;;;13.09;49.48
63493;BME280;49638;47.526;10.028;2023-03-18T12:53:36;91241.34;;;13.12;47.85
63493;BME280;49638;47.526;10.028;2023-03-18T12:56:43;91228.63;;;13.09;50.25
63493;BME280;49638;47.526;10.028;2023-03-18T12:59:47;91235.22;;;13.17;50.48
63493;BME280;49638;47.526;10.028;2023-03-18T13:02:55;91221.16;;;13.16;50.43
63493;BME280;49638;47.526;10.028;2023-03-18T13:06:05;91226.47;;;13.21;48.34
63493;BME280;49638;47.526;10.028;2023-03-18T13:12:38;91230.66;;;13.38;48.46
63493;BME280;49638;47.526;10.028;2023-03-18T13:15:43;91228.50;;;13.45;49.83
63493;BME280;49638;47.526;10.028;2023-03-18T13:18:50;91230.63;;;13.48;50.29
63493;BME280;49638;47.526;10.028;2023-03-18T13:22:29;91225.84;;;13.50;47.47
63493;BME280;49638;47.526;10.028;2023-03-18T13:29:02;91222.66;;;13.53;46.59
63493;BME280;49638;47.526;10.028;2023-03-18T13:32:24;91213.06;;;13.57;46.46
63493;BME280;49638;47.526;10.028;2023-03-18T13:35:38;91208.25;;;13.64;49.87
63493;BME280;49638;47.526;10.028;2023-03-18T13:39:11;91203.47;;;13.66;46.86
63493;BME280;49638;47.526;10.028;2023-03-18T13:42:28;91205.06;;;13.67;46.67
63493;BME280;49638;47.526;10.028;2023-03-18T13:48:33;91198.16;;;13.66;49.65
63493;BME280;49638;47.526;10.028;2023-03-18T13:54:36;91208.50;;;13.73;49.32
63493;BME280;49638;47.526;10.028;2023-03-18T13:57:46;91207.94;;;13.76;46.96
63493;BME280;49638;47.526;10.028;2023-03-18T14:04:18;91212.06;;;13.92;47.48
63493;BME280;49638;47.526;10.028;2023-03-18T14:07:20;91210.19;;;13.98;48.99
63493;BME280;49638;47.526;10.028;2023-03-18T14:10:21;91201.13;;;13.99;49.00
63493;BME280;49638;47.526;10.028;2023-03-18T14:13:33;91199.25;;;14.05;46.02
63493;BME280;49638;47.526;10.028;2023-03-18T14:19:37;91206.91;;;14.11;47.93
63493;BME280;49638;47.526;10.028;2023-03-18T14:22:38;91210.59;;;14.15;48.56
63493;BME280;49638;47.526;10.028;2023-03-18T14:25:39;91201.81;;;14.20;48.71
63493;BME280;49638;47.526;10.028;2023-03-18T14:28:44;91195.91;;;14.23;47.85
63493;BME280;49638;47.526;10.028;2023-03-18T14:31:50;91198.31;;;14.25;47.13
63493;BME280;49638;47.526;10.028;2023-03-18T14:38:19;91188.69;;;14.34;48.48
63493;BME280;49638;47.526;10.028;2023-03-18T14:41:27;91182.84;;;14.32;47.61
63493;BME280;49638;47.526;10.028;2023-03-18T14:44:42;91181.50;;;14.34;46.63
63493;BME280;49638;47.526;10.028;2023-03-18T14:47:55;91187.00;;;14.43;46.67
63493;BME280;49638;47.526;10.028;2023-03-18T14:50:59;91183.00;;;14.46;48.23
63493;BME280;49638;47.526;10.028;2023-03-18T14:57:02;91186.44;;;14.46;48.39
63493;BME280;49638;47.526;10.028;2023-03-18T15:00:06;91182.19;;;14.45;48.96
63493;BME280;49638;47.526;10.028;2023-03-18T15:03:14;91176.34;;;14.48;48.37
63493;BME280;49638;47.526;10.028;2023-03-18T15:06:21;91178.47;;;14.46;47.76
63493;BME280;49638;47.526;10.028;2023-03-18T15:09:24;91181.13;;;14.46;48.11
63493;BME280;49638;47.526;10.028;2023-03-18T15:12:26;91176.91;;;14.40;48.30
63493;BME280;49638;47.526;10.028;2023-03-18T15:15:27;91196.56;;;14.44;48.49
63493;BME280;49638;47.526;10.028;2023-03-18T15:18:30;91188.06;;;14.42;48.01
63493;BME280;49638;47.526;10.028;2023-03-18T15:21:32;91189.72;;;14.38;48.17
63493;BME280;49638;47.526;10.028;2023-03-18T15:24:34;91183.06;;;14.35;47.93
63493;BME280;49638;47.526;10.028;2023-03-18T15:27:35;91184.09;;;14.39;48.23
63493;BME280;49638;47.526;10.028;2023-03-18T15:30:36;91193.41;;;14.42;48.12
63493;BME280;49638;47.526;10.028;2023-03-18T15:33:36;91185.38;;;14.47;48.36
63493;BME280;49638;47.526;10.028;2023-03-18T15:36:55;91186.19;;;14.48;45.93
63493;BME280;49638;47.526;10.028;2023-03-18T15:39:56;91190.19;;;14.45;47.90
63493;BME280;49638;47.526;10.028;2023-03-18T15:43:05;91192.38;;;14.38;47.32
63493;BME280;49638;47.526;10.028;2023-03-18T15:46:22;91182.84;;;14.32;47.50
63493;BME280;49638;47.526;10.028;2023-03-18T15:49:25;91182.38;;;14.25;47.80
63493;BME280;49638;47.526;10.028;2023-03-18T15:52:30;91193.31;;;14.18;46.94
63493;BME280;49638;47.526;10.028;2023-03-18T15:55:44;91191.81;;;14.07;47.66
63493;BME280;49638;47.526;10.028;2023-03-18T15:59:03;91187.34;;;13.97;46.52
63493;BME280;49638;47.526;10.028;2023-03-18T16:02:11;91195.91;;;13.89;46.99
63493;BME280;49638;47.526;10.028;2023-03-18T16:05:14;91196.19;;;13.82;48.19
63493;BME280;49638;47.526;10.028;2023-03-18T16:08:17;91187.78;;;13.70;48.61
63493;BME280;49638;47.526;10.028;2023-03-18T16:11:19;91177.25;;;13.55;49.21
63493;BME280;49638;47.526;10.028;2023-03-18T16:14:23;91189.78;;;13.44;49.70
63493;BME280;49638;47.526;10.028;2023-03-18T16:17:25;91193.25;;;13.39;49.51
63493;BME280;49638;47.526;10.028;2023-03-18T16:20:27;91190.59;;;13.34;49.39
63493;BME280;49638;47.526;10.028;2023-03-18T16:23:28;91192.50;;;13.29;49.64
63493;BME280;49638;47.526;10.028;2023-03-18T16:26:29;91194.91;;;13.25;49.69
63493;BME280;49638;47.526;10.028;2023-03-18T16:29:32;91193.06;;;13.15;50.15
63493;BME280;49638;47.526;10.028;2023-03-18T16:32:33;91203.19;;;12.98;50.35
63493;BME280;49638;47.526;10.028;2023-03-18T16:35:34;91200.56;;;12.88;50.93
63493;BME280;49638;47.526;10.028;2023-03-18T16:38:34;91205.38;;;12.75;51.28
63493;BME280;49638;47.526;10.028;2023-03-18T16:41:35;91209.38;;;12.68;50.78
63493;BME280;49638;47.526;10.028;2023-03-18T16:44:36;91205.09;;;12.67;50.83
63493;BME280;49638;47.526;10.028;2023-03-18T16:47:37;91200.88;;;12.55;50.73
63493;BME280;49638;47.526;10.028;2023-03-18T16:50:38;91224.47;;;12.52;50.89
63493;BME280;49638;47.526;10.028;2023-03-18T16:53:39;91218.66;;;12.40;51.19
63493;BME280;49638;47.526;10.028;2023-03-18T16:56:40;91221.31;;;12.24;51.74
63493;BME280;49638;47.526;10.028;2023-03-18T16:59:45;91223.69;;;12.16;52.09
63493;BME280;49638;47.526;10.028;2023-03-18T17:02:47;91226.59;;;12.04;52.08
63493;BME280;49638;47.526;10.028;2023-03-18T17:05:49;91219.97;;;11.96;52.30
63493;BME280;49638;47.526;10.028;2023-03-18T17:08:49;91230.81;;;11.95;52.20
63493;BME280;49638;47.526;10.028;2023-03-18T17:11:55;91233.22;;;11.96;51.93
63493;BME280;49638;47.526;10.028;2023-03-18T17:14:57;91222.28;;;11.77;52.64
63493;BME280;49638;47.526;10.028;2023-03-18T17:17:58;91221.72;;;11.60;52.98
63493;BME280;49638;47.526;10.028;2023-03-18T17:20:58;91234.94;;;11.50;53.38
63493;BME280;49638;47.526;10.028;2023-03-18T17:23:59;91231.19;;;11.35;53.67
63493;BME280;49638;47.526;10.028;2023-03-18T17:26:59;91232.72;;;11.26;53.82